Time;durP1;ratioP1;P1;durP2;ratioP2;P2;SDS_P1;SDS_P2;PMS_P1;PMS_P2;Temp;Humidity;BMP_temperature;BMP_pressure;BME280_temperature;BME280_humidity;BME280_pressure;Samples;Min_cycle;Max_cycle;Signal;HPM_P1;HPM_P2
2022/09/23 00:03:40;;;;;;;13.3;16.8;;;;;;;9.7;86.8;99250;;;;
2022/09/23 00:14:38;;;;;;;13.3;16.8;;;;;;;9.8;87;99240;;;;
2022/09/23 00:24:39;;;;;;;14.7;19.4;;;;;;;9.7;87.1;99240;;;;
2022/09/23 00:34:38;;;;;;;14.7;19.4;;;;;;;9.7;86.9;99220;;;;
2022/09/23 00:44:38;;;;;;;14.7;19.4;;;;;;;9.7;87;99210;;;;
2022/09/23 00:55:38;;;;;;;14.3;18.2;;;;;;;9.7;87.1;99220;;;;
2022/09/23 01:05:38;;;;;;;14.3;18.2;;;;;;;9.8;87.2;99220;;;;
2022/09/23 01:15:38;;;;;;;14.3;18.2;;;;;;;9.8;87.3;99220;;;;
2022/09/23 01:26:38;;;;;;;15.6;18.7;;;;;;;9.9;87.2;99200;;;;
2022/09/23 01:37:38;;;;;;;15.6;18.7;;;;;;;9.9;86.9;99200;;;;
2022/09/23 01:47:38;;;;;;;15.6;18.7;;;;;;;9.9;86.9;99200;;;;
2022/09/23 01:57:38;;;;;;;15.6;20.9;;;;;;;9.8;86.8;99200;;;;
2022/09/23 02:08:38;;;;;;;15.6;20.9;;;;;;;9.8;86.8;99200;;;;
2022/09/23 02:18:40;;;;;;;;;;;;;;;;;;;;;
2022/09/23 02:29:38;;;;;;;14.9;19.4;;;;;;;9.8;87.1;99200;;;;
2022/09/23 02:39:38;;;;;;;14.9;19.4;;;;;;;9.8;87.1;99200;;;;
2022/09/23 02:50:38;;;;;;;14.8;18;;;;;;;9.8;87.1;99190;;;;
2022/09/23 03:00:38;;;;;;;14.8;18;;;;;;;9.8;86.9;99190;;;;
2022/09/23 03:11:38;;;;;;;14.8;18;;;;;;;9.8;86.9;99200;;;;
2022/09/23 03:22:38;;;;;;;14.5;18.3;;;;;;;9.8;86.9;99190;;;;
2022/09/23 03:32:38;;;;;;;14.5;18.3;;;;;;;9.8;87;99190;;;;
2022/09/23 03:43:38;;;;;;;14.5;18.3;;;;;;;9.8;87.2;99190;;;;
2022/09/23 03:53:38;;;;;;;16;20.8;;;;;;;9.7;87.4;99180;;;;
2022/09/23 04:03:38;;;;;;;16;20.8;;;;;;;9.7;87.7;99180;;;;
2022/09/23 04:14:38;;;;;;;16;20.8;;;;;;;9.7;87.9;99180;;;;
2022/09/23 04:24:38;;;;;;;18.6;27.8;;;;;;;9.8;87.9;99180;;;;
2022/09/23 04:35:38;;;;;;;18.6;27.8;;;;;;;9.7;88.3;99190;;;;
2022/09/23 04:46:38;;;;;;;18.6;27.8;;;;;;;9.8;88.2;99190;;;;
2022/09/23 04:56:38;;;;;;;22.5;28.7;;;;;;;9.8;88.1;99190;;;;
2022/09/23 05:06:38;;;;;;;22.5;28.7;;;;;;;9.8;88.1;99190;;;;
2022/09/23 05:17:38;;;;;;;22.5;28.7;;;;;;;9.8;88.2;99200;;;;
2022/09/23 05:27:38;;;;;;;25.9;29.7;;;;;;;10;88;99210;;;;
2022/09/23 05:38:39;;;;;;;25.9;29.7;;;;;;;10.1;87.9;99220;;;;
2022/09/23 05:48:38;;;;;;;27;31.2;;;;;;;10.3;87.4;99210;;;;
2022/09/23 05:59:38;;;;;;;27;31.2;;;;;;;10.2;87.1;99210;;;;
2022/09/23 06:10:38;;;;;;;27;31.2;;;;;;;10.3;86.6;99220;;;;
2022/09/23 06:21:39;;;;;;;28.9;40.4;;;;;;;10.3;85.9;99230;;;;
2022/09/23 06:31:39;;;;;;;28.9;40.4;;;;;;;10.4;85.6;99230;;;;
2022/09/23 06:42:38;;;;;;;28.9;40.4;;;;;;;10.7;85.2;99240;;;;
2022/09/23 06:53:38;;;;;;;27.9;32.2;;;;;;;10.9;84.2;99240;;;;
2022/09/23 07:04:38;;;;;;;27.9;32.2;;;;;;;11.2;83.6;99250;;;;
2022/09/23 07:15:38;;;;;;;27.9;32.2;;;;;;;11.6;82.2;99250;;;;
2022/09/23 07:25:38;;;;;;;26.3;32.3;;;;;;;11.7;81.2;99250;;;;
2022/09/23 07:35:39;;;;;;;26.3;32.3;;;;;;;11.7;80.7;99250;;;;
2022/09/23 07:46:38;;;;;;;26.3;32.3;;;;;;;12.2;78.9;99250;;;;
2022/09/23 07:57:38;;;;;;;25.2;29.7;;;;;;;12.6;76.1;99260;;;;
2022/09/23 08:07:38;;;;;;;25.2;29.7;;;;;;;13.1;76.1;99260;;;;
2022/09/23 08:17:38;;;;;;;25.2;29.7;;;;;;;13.1;76;99250;;;;
2022/09/23 08:28:38;;;;;;;27.8;31;;;;;;;12.8;74.7;99240;;;;
2022/09/23 08:38:38;;;;;;;27.8;31;;;;;;;13.1;75.8;99240;;;;
2022/09/23 08:49:38;;;;;;;19;23.3;;;;;;;13.6;73.6;99230;;;;
2022/09/23 08:59:38;;;;;;;19;23.3;;;;;;;14;73.5;99220;;;;
2022/09/23 09:09:38;;;;;;;19;23.3;;;;;;;14.2;70.8;99210;;;;
2022/09/23 09:20:38;;;;;;;18.4;22.9;;;;;;;14.6;69.7;99210;;;;
2022/09/23 09:30:38;;;;;;;18.4;22.9;;;;;;;14.5;68.4;99200;;;;
2022/09/23 09:40:38;;;;;;;18.4;22.9;;;;;;;14.5;66.1;99200;;;;
2022/09/23 09:51:40;;;;;;;12.5;16.1;;;;;;;15.4;67.3;99180;;;;
2022/09/23 10:02:38;;;;;;;12.5;16.1;;;;;;;15.8;62;99170;;;;
2022/09/23 10:13:38;;;;;;;12.5;16.1;;;;;;;15.8;66.3;99170;;;;
2022/09/23 10:23:38;;;;;;;8.7;15.3;;;;;;;15.8;61.9;99160;;;;
2022/09/23 10:34:38;;;;;;;8.7;15.3;;;;;;;15.2;62.9;99150;;;;
2022/09/23 10:54:38;;;;;;;7.7;10.2;;;;;;;14.9;65;99150;;;;
2022/09/23 11:04:38;;;;;;;7.7;10.2;;;;;;;15.1;61.7;99140;;;;
2022/09/23 11:14:39;;;;;;;7.7;10.2;;;;;;;15.7;63.5;99140;;;;
2022/09/23 11:25:38;;;;;;;6.4;10.3;;;;;;;15.4;61.5;99120;;;;
2022/09/23 11:35:40;;;;;;;6.4;10.3;;;;;;;15.1;63.1;99120;;;;
2022/09/23 11:46:38;;;;;;;6.4;10.3;;;;;;;15.1;63.2;99110;;;;
2022/09/23 11:56:40;;;;;;;6;10;;;;;;;15.2;60.8;99100;;;;
2022/09/23 12:06:38;;;;;;;6;10;;;;;;;15.9;59.6;99090;;;;
2022/09/23 12:17:38;;;;;;;6;10;;;;;;;16.3;56.7;99080;;;;
2022/09/23 12:27:38;;;;;;;4.9;10.2;;;;;;;16.8;56.2;99070;;;;
2022/09/23 12:37:38;;;;;;;4.9;10.2;;;;;;;17.1;52.6;99060;;;;
2022/09/23 12:48:39;;;;;;;3.7;6.5;;;;;;;17.1;53.9;99050;;;;
2022/09/23 12:59:38;;;;;;;3.7;6.5;;;;;;;16.6;54.5;99040;;;;
2022/09/23 13:10:38;;;;;;;3.7;6.5;;;;;;;15.9;56.3;99030;;;;
2022/09/23 13:20:39;;;;;;;3.3;6.4;;;;;;;15.9;55.8;99020;;;;
2022/09/23 13:30:39;;;;;;;3.3;6.4;;;;;;;15.7;52.1;99000;;;;
2022/09/23 13:41:38;;;;;;;3.3;6.4;;;;;;;15.8;53.8;99000;;;;
2022/09/23 13:52:38;;;;;;;3.2;5.7;;;;;;;16.2;55.8;98990;;;;
2022/09/23 14:02:39;;;;;;;3.2;5.7;;;;;;;16.5;56.1;98980;;;;
2022/09/23 14:13:38;;;;;;;3.2;5.7;;;;;;;16.8;56.6;98960;;;;
2022/09/23 14:23:38;;;;;;;4.2;8.4;;;;;;;16.8;53.9;98960;;;;
2022/09/23 14:34:38;;;;;;;4.2;8.4;;;;;;;16.6;50.7;98950;;;;
2022/09/23 14:44:39;;;;;;;4.2;8.4;;;;;;;16.3;52;98940;;;;
2022/09/23 14:54:38;;;;;;;3.6;6.1;;;;;;;16.1;53.1;98950;;;;
2022/09/23 15:04:38;;;;;;;3.6;6.1;;;;;;;16.1;53.3;98950;;;;
2022/09/23 15:15:38;;;;;;;3.6;6.1;;;;;;;16.7;54.2;98940;;;;
2022/09/23 15:26:39;;;;;;;4;6.5;;;;;;;19.1;52.6;98930;;;;
2022/09/23 15:37:39;;;;;;;4;6.5;;;;;;;20.6;46.2;98930;;;;
2022/09/23 15:48:39;;;;;;;4.2;7.5;;;;;;;21.5;42.6;98920;;;;
2022/09/23 15:59:39;;;;;;;4.2;7.5;;;;;;;21.7;41.2;98920;;;;
2022/09/23 16:09:38;;;;;;;4.2;7.5;;;;;;;20.4;43.9;98930;;;;
2022/09/23 16:20:38;;;;;;;4.9;7.5;;;;;;;18.1;47.9;98930;;;;
2022/09/23 16:31:38;;;;;;;4.9;7.5;;;;;;;16.4;52.7;98950;;;;
2022/09/23 16:42:39;;;;;;;4.9;7.5;;;;;;;14.8;57.5;98940;;;;
2022/09/23 16:53:38;;;;;;;5.9;11.9;;;;;;;13.7;59.5;98940;;;;
2022/09/23 17:03:39;;;;;;;5.9;11.9;;;;;;;12.7;61.5;98940;;;;
2022/09/23 17:14:38;;;;;;;5.9;11.9;;;;;;;11.7;65.7;98940;;;;
2022/09/23 17:24:38;;;;;;;7.8;12.3;;;;;;;11.1;68.8;98940;;;;
2022/09/23 17:35:38;;;;;;;7.8;12.3;;;;;;;10.4;71.3;98940;;;;
2022/09/23 17:45:40;;;;;;;7.8;12.3;;;;;;;9.9;74.7;98950;;;;
2022/09/23 17:55:38;;;;;;;11.6;18;;;;;;;9.6;75;98960;;;;
2022/09/23 18:06:39;;;;;;;11.6;18;;;;;;;9.3;75.8;98960;;;;
2022/09/23 18:17:38;;;;;;;11.6;18;;;;;;;9;76.9;98970;;;;
2022/09/23 18:27:38;;;;;;;9.3;15.4;;;;;;;8.8;78.2;98960;;;;
2022/09/23 18:37:38;;;;;;;9.3;15.4;;;;;;;8.6;79.4;98960;;;;
2022/09/23 18:58:38;;;;;;;18.1;22.9;;;;;;;8.2;79.2;98960;;;;
2022/09/23 19:09:38;;;;;;;18.1;22.9;;;;;;;8;79;98970;;;;
2022/09/23 19:19:39;;;;;;;14.8;22;;;;;;;7.9;80.2;98980;;;;
2022/09/23 19:29:39;;;;;;;14.8;22;;;;;;;7.7;81.3;98980;;;;
2022/09/23 19:39:39;;;;;;;14.8;22;;;;;;;7.6;81.7;98960;;;;
2022/09/23 19:50:39;;;;;;;25.1;42.7;;;;;;;7.4;81.8;98970;;;;
2022/09/23 20:01:39;;;;;;;25.1;42.7;;;;;;;7.3;82.4;98970;;;;
2022/09/23 20:12:41;;;;;;;25.1;42.7;;;;;;;7.1;82.3;98980;;;;
2022/09/23 20:22:38;;;;;;;19.9;31.3;;;;;;;7;83.8;98970;;;;
2022/09/23 20:32:39;;;;;;;19.9;31.3;;;;;;;7;83.7;98970;;;;
2022/09/23 20:42:39;;;;;;;19.9;31.3;;;;;;;6.8;83;98960;;;;
2022/09/23 20:52:39;;;;;;;25.6;44.2;;;;;;;6.7;82.8;98950;;;;
2022/09/23 21:03:38;;;;;;;25.6;44.2;;;;;;;6.5;82.8;98950;;;;
2022/09/23 21:14:38;;;;;;;25.6;44.2;;;;;;;6.3;82.9;98950;;;;
2022/09/23 21:24:39;;;;;;;16.1;24.1;;;;;;;6.2;83.9;98950;;;;
2022/09/23 21:35:39;;;;;;;16.1;24.1;;;;;;;6;83.7;98960;;;;
2022/09/23 21:45:38;;;;;;;16.1;24.1;;;;;;;5.9;84.6;98960;;;;
2022/09/23 21:56:39;;;;;;;18;35.1;;;;;;;5.8;85.6;98960;;;;
2022/09/23 22:07:38;;;;;;;18;35.1;;;;;;;5.7;85.7;98960;;;;
2022/09/23 22:17:38;;;;;;;13.8;22;;;;;;;5.6;86;98960;;;;
2022/09/23 22:32:39;;;;;;;13.8;22;;;;;;;5.5;86;98960;;;;
2022/09/23 22:37:39;;;;;;;13.8;22;;;;;;;5.5;86;98950;;;;
2022/09/23 22:47:39;;;;;;;11.1;17.9;;;;;;;5.4;86.7;98950;;;;
2022/09/23 22:57:39;;;;;;;11.1;17.9;;;;;;;5.4;86.6;98940;;;;
2022/09/23 23:08:39;;;;;;;11.1;17.9;;;;;;;5.3;86.9;98950;;;;
2022/09/23 23:19:39;;;;;;;13.2;19.3;;;;;;;5.3;87;98940;;;;
2022/09/23 23:29:39;;;;;;;13.2;19.3;;;;;;;5.3;86.7;98930;;;;
2022/09/23 23:40:39;;;;;;;13.2;19.3;;;;;;;5.2;86.5;98920;;;;
2022/09/23 23:51:39;;;;;;;10.8;17.8;;;;;;;5.1;86.3;98920;;;;
